Terminal Aerodrome Forecast
Issued by NWS Lake Charles, LA

Home | Current Version | Previous Version | Text Only | Print | Product List | Glossary On
Versions: 1 2 3 4 5 6 7 8 9 10 11 12 13 14 15 16 17 18 19 20 21 22 23 24 25 26 27 28
000
FTUS44 KLCH 250524
TAFLCH
TAF
KLCH 250524Z 2506/2606 VRB05KT P6SM FEW015 OVC200
      TEMPO 2509/2513 5SM BR
     FM251400 15009KT P6SM BKN025
     FM251800 18007KT P6SM VCSH FEW022 SCT030 BKN250
      TEMPO 2520/2524 5SM -TSRA SCT030 BKN040CB=

USA.gov is the U.S. government's official web portal to all federal, state and local government web resources and services.